sensor_id;sensor_type;location;lat;lon;timestamp;P1;durP1;ratioP1;P2;durP2;ratioP2
46757;SDS011;32509;47.750;-3.396;2024-02-23T00:02:19;38.63;;;35.17;;
46757;SDS011;32509;47.750;-3.396;2024-02-23T00:04:45;38.33;;;34.67;;
46757;SDS011;32509;47.750;-3.396;2024-02-23T00:07:11;37.58;;;34.03;;
46757;SDS011;32509;47.750;-3.396;2024-02-23T00:09:37;35.80;;;32.30;;
46757;SDS011;32509;47.750;-3.396;2024-02-23T00:12:03;36.28;;;32.70;;
46757;SDS011;32509;47.750;-3.396;2024-02-23T00:14:29;34.47;;;31.40;;
46757;SDS011;32509;47.750;-3.396;2024-02-23T00:17:01;34.53;;;31.58;;
46757;SDS011;32509;47.750;-3.396;2024-02-23T00:19:30;33.70;;;30.85;;
46757;SDS011;32509;47.750;-3.396;2024-02-23T00:21:56;37.92;;;34.58;;
46757;SDS011;32509;47.750;-3.396;2024-02-23T00:24:24;36.33;;;32.80;;
46757;SDS011;32509;47.750;-3.396;2024-02-23T00:26:53;36.72;;;32.78;;
46757;SDS011;32509;47.750;-3.396;2024-02-23T00:29:19;33.60;;;30.55;;
46757;SDS011;32509;47.750;-3.396;2024-02-23T00:31:46;34.47;;;31.27;;
46757;SDS011;32509;47.750;-3.396;2024-02-23T00:34:12;34.35;;;31.33;;
46757;SDS011;32509;47.750;-3.396;2024-02-23T00:36:40;35.97;;;32.78;;
46757;SDS011;32509;47.750;-3.396;2024-02-23T00:39:07;35.92;;;32.53;;
46757;SDS011;32509;47.750;-3.396;2024-02-23T00:41:33;38.53;;;35.45;;
46757;SDS011;32509;47.750;-3.396;2024-02-23T00:43:59;37.42;;;33.80;;
46757;SDS011;32509;47.750;-3.396;2024-02-23T00:46:25;36.70;;;33.33;;
46757;SDS011;32509;47.750;-3.396;2024-02-23T00:48:51;36.75;;;33.05;;
46757;SDS011;32509;47.750;-3.396;2024-02-23T00:51:17;33.30;;;30.00;;
46757;SDS011;32509;47.750;-3.396;2024-02-23T00:53:42;36.35;;;33.22;;
46757;SDS011;32509;47.750;-3.396;2024-02-23T00:56:08;36.50;;;32.95;;
46757;SDS011;32509;47.750;-3.396;2024-02-23T00:58:34;37.80;;;33.78;;
46757;SDS011;32509;47.750;-3.396;2024-02-23T01:01:00;39.55;;;35.35;;
46757;SDS011;32509;47.750;-3.396;2024-02-23T01:03:26;39.85;;;36.58;;
46757;SDS011;32509;47.750;-3.396;2024-02-23T01:05:52;39.08;;;35.45;;
46757;SDS011;32509;47.750;-3.396;2024-02-23T01:08:18;37.50;;;34.05;;
46757;SDS011;32509;47.750;-3.396;2024-02-23T01:10:44;38.33;;;34.53;;
46757;SDS011;32509;47.750;-3.396;2024-02-23T01:13:10;37.03;;;33.65;;
46757;SDS011;32509;47.750;-3.396;2024-02-23T01:15:36;37.28;;;33.97;;
46757;SDS011;32509;47.750;-3.396;2024-02-23T01:18:02;38.72;;;35.30;;
46757;SDS011;32509;47.750;-3.396;2024-02-23T01:20:30;34.72;;;31.60;;
46757;SDS011;32509;47.750;-3.396;2024-02-23T01:22:56;37.67;;;34.28;;
46757;SDS011;32509;47.750;-3.396;2024-02-23T01:25:22;34.70;;;31.73;;
46757;SDS011;32509;47.750;-3.396;2024-02-23T01:27:48;32.13;;;28.85;;
46757;SDS011;32509;47.750;-3.396;2024-02-23T01:30:14;35.10;;;31.73;;
46757;SDS011;32509;47.750;-3.396;2024-02-23T01:32:39;35.70;;;32.85;;
46757;SDS011;32509;47.750;-3.396;2024-02-23T01:35:05;36.90;;;33.95;;
46757;SDS011;32509;47.750;-3.396;2024-02-23T01:37:33;35.55;;;32.85;;
46757;SDS011;32509;47.750;-3.396;2024-02-23T01:39:59;36.47;;;33.50;;
46757;SDS011;32509;47.750;-3.396;2024-02-23T01:42:25;35.10;;;32.72;;
46757;SDS011;32509;47.750;-3.396;2024-02-23T01:44:51;36.50;;;33.80;;
46757;SDS011;32509;47.750;-3.396;2024-02-23T01:47:17;37.80;;;35.15;;
46757;SDS011;32509;47.750;-3.396;2024-02-23T01:49:44;39.03;;;36.22;;
46757;SDS011;32509;47.750;-3.396;2024-02-23T01:52:11;37.33;;;34.28;;
46757;SDS011;32509;47.750;-3.396;2024-02-23T01:54:39;38.42;;;35.50;;
46757;SDS011;32509;47.750;-3.396;2024-02-23T01:57:05;38.03;;;35.30;;
46757;SDS011;32509;47.750;-3.396;2024-02-23T01:59:34;39.92;;;36.35;;
46757;SDS011;32509;47.750;-3.396;2024-02-23T02:02:02;35.25;;;32.72;;
46757;SDS011;32509;47.750;-3.396;2024-02-23T02:04:28;34.42;;;32.03;;
46757;SDS011;32509;47.750;-3.396;2024-02-23T02:06:54;34.47;;;31.65;;
46757;SDS011;32509;47.750;-3.396;2024-02-23T02:09:21;35.10;;;32.58;;
46757;SDS011;32509;47.750;-3.396;2024-02-23T02:11:50;34.35;;;31.63;;
46757;SDS011;32509;47.750;-3.396;2024-02-23T02:14:16;36.67;;;33.60;;
46757;SDS011;32509;47.750;-3.396;2024-02-23T02:16:43;37.92;;;34.53;;
46757;SDS011;32509;47.750;-3.396;2024-02-23T02:19:12;38.90;;;35.88;;
46757;SDS011;32509;47.750;-3.396;2024-02-23T02:21:38;34.20;;;31.25;;
46757;SDS011;32509;47.750;-3.396;2024-02-23T02:24:04;35.42;;;31.73;;
46757;SDS011;32509;47.750;-3.396;2024-02-23T02:26:31;37.25;;;34.40;;
46757;SDS011;32509;47.750;-3.396;2024-02-23T02:28:57;39.42;;;35.90;;
46757;SDS011;32509;47.750;-3.396;2024-02-23T02:31:23;37.67;;;34.92;;
46757;SDS011;32509;47.750;-3.396;2024-02-23T02:33:49;36.42;;;33.00;;
46757;SDS011;32509;47.750;-3.396;2024-02-23T02:36:14;36.53;;;33.45;;
46757;SDS011;32509;47.750;-3.396;2024-02-23T02:38:40;38.13;;;34.92;;
46757;SDS011;32509;47.750;-3.396;2024-02-23T02:41:06;39.53;;;35.90;;
46757;SDS011;32509;47.750;-3.396;2024-02-23T02:43:32;36.78;;;33.90;;
46757;SDS011;32509;47.750;-3.396;2024-02-23T02:45:57;39.05;;;36.30;;
46757;SDS011;32509;47.750;-3.396;2024-02-23T02:48:23;42.67;;;39.00;;
46757;SDS011;32509;47.750;-3.396;2024-02-23T02:50:50;40.80;;;37.22;;
46757;SDS011;32509;47.750;-3.396;2024-02-23T02:53:16;39.13;;;35.85;;
46757;SDS011;32509;47.750;-3.396;2024-02-23T02:55:43;40.33;;;37.03;;
46757;SDS011;32509;47.750;-3.396;2024-02-23T02:58:09;40.63;;;37.20;;
46757;SDS011;32509;47.750;-3.396;2024-02-23T03:00:38;43.75;;;40.58;;
46757;SDS011;32509;47.750;-3.396;2024-02-23T03:03:03;50.25;;;47.00;;
46757;SDS011;32509;47.750;-3.396;2024-02-23T03:05:30;44.33;;;41.30;;
46757;SDS011;32509;47.750;-3.396;2024-02-23T03:07:55;40.47;;;38.08;;
46757;SDS011;32509;47.750;-3.396;2024-02-23T03:10:21;40.83;;;38.33;;
46757;SDS011;32509;47.750;-3.396;2024-02-23T03:12:47;41.72;;;38.92;;
46757;SDS011;32509;47.750;-3.396;2024-02-23T03:15:13;34.03;;;32.03;;
46757;SDS011;32509;47.750;-3.396;2024-02-23T03:17:38;33.92;;;31.80;;
46757;SDS011;32509;47.750;-3.396;2024-02-23T03:20:04;34.25;;;32.00;;
46757;SDS011;32509;47.750;-3.396;2024-02-23T03:22:33;32.42;;;30.48;;
46757;SDS011;32509;47.750;-3.396;2024-02-23T03:25:00;32.10;;;29.92;;
46757;SDS011;32509;47.750;-3.396;2024-02-23T03:27:33;32.40;;;30.42;;
46757;SDS011;32509;47.750;-3.396;2024-02-23T03:29:59;30.27;;;28.30;;
46757;SDS011;32509;47.750;-3.396;2024-02-23T03:32:25;32.28;;;29.80;;
46757;SDS011;32509;47.750;-3.396;2024-02-23T03:34:51;33.42;;;30.63;;
46757;SDS011;32509;47.750;-3.396;2024-02-23T03:37:17;30.92;;;28.63;;
46757;SDS011;32509;47.750;-3.396;2024-02-23T03:39:43;31.83;;;29.25;;
46757;SDS011;32509;47.750;-3.396;2024-02-23T03:42:08;32.42;;;30.10;;
46757;SDS011;32509;47.750;-3.396;2024-02-23T03:44:34;33.35;;;30.23;;
46757;SDS011;32509;47.750;-3.396;2024-02-23T03:47:00;31.75;;;29.55;;
46757;SDS011;32509;47.750;-3.396;2024-02-23T03:49:26;32.08;;;29.77;;
46757;SDS011;32509;47.750;-3.396;2024-02-23T03:51:52;31.77;;;29.05;;
46757;SDS011;32509;47.750;-3.396;2024-02-23T03:54:17;32.55;;;29.90;;
46757;SDS011;32509;47.750;-3.396;2024-02-23T03:56:43;32.08;;;29.05;;
46757;SDS011;32509;47.750;-3.396;2024-02-23T03:59:09;33.95;;;31.35;;
46757;SDS011;32509;47.750;-3.396;2024-02-23T04:01:36;33.15;;;30.40;;
46757;SDS011;32509;47.750;-3.396;2024-02-23T04:04:03;35.40;;;32.05;;
46757;SDS011;32509;47.750;-3.396;2024-02-23T04:06:29;39.03;;;35.70;;
46757;SDS011;32509;47.750;-3.396;2024-02-23T04:08:55;34.53;;;31.85;;
46757;SDS011;32509;47.750;-3.396;2024-02-23T04:11:20;35.50;;;32.40;;
46757;SDS011;32509;47.750;-3.396;2024-02-23T04:13:46;33.35;;;30.13;;
46757;SDS011;32509;47.750;-3.396;2024-02-23T04:16:12;33.75;;;30.92;;
46757;SDS011;32509;47.750;-3.396;2024-02-23T04:18:38;30.17;;;27.90;;
46757;SDS011;32509;47.750;-3.396;2024-02-23T04:21:03;31.33;;;28.85;;
46757;SDS011;32509;47.750;-3.396;2024-02-23T04:23:29;31.92;;;29.58;;
46757;SDS011;32509;47.750;-3.396;2024-02-23T04:25:55;29.02;;;26.90;;
46757;SDS011;32509;47.750;-3.396;2024-02-23T04:28:21;30.85;;;28.55;;
46757;SDS011;32509;47.750;-3.396;2024-02-23T04:30:47;32.05;;;29.83;;
46757;SDS011;32509;47.750;-3.396;2024-02-23T04:33:12;32.55;;;30.30;;
46757;SDS011;32509;47.750;-3.396;2024-02-23T04:35:38;34.63;;;32.13;;
46757;SDS011;32509;47.750;-3.396;2024-02-23T04:38:04;34.13;;;31.33;;
46757;SDS011;32509;47.750;-3.396;2024-02-23T04:40:30;33.60;;;31.20;;
46757;SDS011;32509;47.750;-3.396;2024-02-23T04:42:55;33.03;;;30.70;;
46757;SDS011;32509;47.750;-3.396;2024-02-23T04:45:21;35.40;;;32.67;;
46757;SDS011;32509;47.750;-3.396;2024-02-23T04:47:47;33.10;;;30.70;;
46757;SDS011;32509;47.750;-3.396;2024-02-23T04:50:13;35.40;;;32.58;;
46757;SDS011;32509;47.750;-3.396;2024-02-23T04:52:39;33.08;;;30.83;;
46757;SDS011;32509;47.750;-3.396;2024-02-23T04:55:05;32.90;;;30.50;;
46757;SDS011;32509;47.750;-3.396;2024-02-23T04:57:31;32.42;;;29.65;;
46757;SDS011;32509;47.750;-3.396;2024-02-23T04:59:57;35.33;;;32.58;;
46757;SDS011;32509;47.750;-3.396;2024-02-23T05:02:23;32.90;;;30.25;;
46757;SDS011;32509;47.750;-3.396;2024-02-23T05:04:49;35.88;;;33.20;;
46757;SDS011;32509;47.750;-3.396;2024-02-23T05:07:14;35.10;;;32.40;;
46757;SDS011;32509;47.750;-3.396;2024-02-23T05:09:40;34.97;;;32.33;;
46757;SDS011;32509;47.750;-3.396;2024-02-23T05:12:07;35.45;;;32.35;;
46757;SDS011;32509;47.750;-3.396;2024-02-23T05:14:33;35.42;;;32.30;;
46757;SDS011;32509;47.750;-3.396;2024-02-23T05:16:59;37.42;;;34.03;;
46757;SDS011;32509;47.750;-3.396;2024-02-23T05:19:25;39.53;;;36.35;;
46757;SDS011;32509;47.750;-3.396;2024-02-23T05:21:51;35.95;;;33.30;;
46757;SDS011;32509;47.750;-3.396;2024-02-23T05:24:17;38.20;;;35.53;;
46757;SDS011;32509;47.750;-3.396;2024-02-23T05:26:43;37.38;;;35.08;;
46757;SDS011;32509;47.750;-3.396;2024-02-23T05:29:09;37.35;;;34.75;;
46757;SDS011;32509;47.750;-3.396;2024-02-23T05:31:44;37.50;;;34.40;;
46757;SDS011;32509;47.750;-3.396;2024-02-23T05:34:12;42.75;;;39.40;;
46757;SDS011;32509;47.750;-3.396;2024-02-23T05:36:38;39.17;;;36.60;;
46757;SDS011;32509;47.750;-3.396;2024-02-23T05:39:03;36.88;;;33.65;;
46757;SDS011;32509;47.750;-3.396;2024-02-23T05:41:30;34.97;;;32.63;;
46757;SDS011;32509;47.750;-3.396;2024-02-23T05:43:55;34.80;;;32.38;;
46757;SDS011;32509;47.750;-3.396;2024-02-23T05:46:22;33.85;;;31.55;;
46757;SDS011;32509;47.750;-3.396;2024-02-23T05:48:47;38.60;;;35.85;;
46757;SDS011;32509;47.750;-3.396;2024-02-23T05:51:13;37.65;;;35.33;;
46757;SDS011;32509;47.750;-3.396;2024-02-23T05:53:40;37.25;;;34.78;;
46757;SDS011;32509;47.750;-3.396;2024-02-23T05:56:06;34.85;;;32.42;;
46757;SDS011;32509;47.750;-3.396;2024-02-23T05:58:31;35.92;;;33.50;;
46757;SDS011;32509;47.750;-3.396;2024-02-23T06:00:57;34.10;;;31.85;;
46757;SDS011;32509;47.750;-3.396;2024-02-23T06:03:23;35.92;;;33.45;;
46757;SDS011;32509;47.750;-3.396;2024-02-23T06:05:49;38.00;;;35.13;;
46757;SDS011;32509;47.750;-3.396;2024-02-23T06:08:14;45.90;;;43.08;;
46757;SDS011;32509;47.750;-3.396;2024-02-23T06:10:40;42.63;;;39.85;;
46757;SDS011;32509;47.750;-3.396;2024-02-23T06:13:08;38.78;;;36.38;;
46757;SDS011;32509;47.750;-3.396;2024-02-23T06:15:33;38.30;;;35.65;;
46757;SDS011;32509;47.750;-3.396;2024-02-23T06:17:59;35.97;;;33.63;;
46757;SDS011;32509;47.750;-3.396;2024-02-23T06:20:25;35.33;;;32.80;;
46757;SDS011;32509;47.750;-3.396;2024-02-23T06:22:51;39.90;;;37.38;;
46757;SDS011;32509;47.750;-3.396;2024-02-23T06:25:16;36.78;;;34.15;;
46757;SDS011;32509;47.750;-3.396;2024-02-23T06:27:42;33.30;;;31.40;;
46757;SDS011;32509;47.750;-3.396;2024-02-23T06:30:08;35.10;;;32.67;;
46757;SDS011;32509;47.750;-3.396;2024-02-23T06:32:36;32.42;;;30.38;;
46757;SDS011;32509;47.750;-3.396;2024-02-23T06:35:01;30.92;;;28.92;;
46757;SDS011;32509;47.750;-3.396;2024-02-23T06:37:28;34.47;;;32.05;;
46757;SDS011;32509;47.750;-3.396;2024-02-23T06:39:53;33.17;;;31.05;;
46757;SDS011;32509;47.750;-3.396;2024-02-23T06:42:22;31.92;;;29.50;;
46757;SDS011;32509;47.750;-3.396;2024-02-23T06:44:48;33.17;;;30.90;;
46757;SDS011;32509;47.750;-3.396;2024-02-23T06:47:14;33.45;;;31.05;;
46757;SDS011;32509;47.750;-3.396;2024-02-23T06:49:43;33.20;;;31.17;;
46757;SDS011;32509;47.750;-3.396;2024-02-23T06:52:09;34.88;;;32.13;;
46757;SDS011;32509;47.750;-3.396;2024-02-23T06:54:36;35.72;;;33.33;;
46757;SDS011;32509;47.750;-3.396;2024-02-23T06:57:01;36.03;;;33.75;;
46757;SDS011;32509;47.750;-3.396;2024-02-23T06:59:28;37.35;;;34.65;;
46757;SDS011;32509;47.750;-3.396;2024-02-23T07:01:54;36.50;;;33.92;;
46757;SDS011;32509;47.750;-3.396;2024-02-23T07:04:20;38.83;;;36.20;;
46757;SDS011;32509;47.750;-3.396;2024-02-23T07:06:46;38.88;;;36.28;;
46757;SDS011;32509;47.750;-3.396;2024-02-23T07:09:12;35.45;;;33.20;;
46757;SDS011;32509;47.750;-3.396;2024-02-23T07:11:38;37.28;;;34.97;;
46757;SDS011;32509;47.750;-3.396;2024-02-23T07:14:06;35.65;;;33.45;;
46757;SDS011;32509;47.750;-3.396;2024-02-23T07:16:37;35.15;;;32.65;;
46757;SDS011;32509;47.750;-3.396;2024-02-23T07:19:04;36.22;;;33.72;;
46757;SDS011;32509;47.750;-3.396;2024-02-23T07:21:30;38.95;;;36.55;;
46757;SDS011;32509;47.750;-3.396;2024-02-23T07:23:56;37.05;;;34.45;;
46757;SDS011;32509;47.750;-3.396;2024-02-23T07:26:21;35.80;;;33.42;;
46757;SDS011;32509;47.750;-3.396;2024-02-23T07:28:48;35.65;;;32.70;;
46757;SDS011;32509;47.750;-3.396;2024-02-23T07:31:14;36.40;;;34.00;;
46757;SDS011;32509;47.750;-3.396;2024-02-23T07:33:40;37.88;;;35.10;;
46757;SDS011;32509;47.750;-3.396;2024-02-23T07:36:07;41.03;;;37.67;;
46757;SDS011;32509;47.750;-3.396;2024-02-23T07:38:34;37.67;;;34.70;;
46757;SDS011;32509;47.750;-3.396;2024-02-23T07:40:59;35.15;;;32.28;;
46757;SDS011;32509;47.750;-3.396;2024-02-23T07:43:25;34.22;;;31.83;;
46757;SDS011;32509;47.750;-3.396;2024-02-23T07:45:53;35.83;;;32.97;;
46757;SDS011;32509;47.750;-3.396;2024-02-23T07:48:19;34.42;;;32.15;;
46757;SDS011;32509;47.750;-3.396;2024-02-23T07:50:44;35.47;;;32.72;;
46757;SDS011;32509;47.750;-3.396;2024-02-23T07:53:10;34.38;;;31.95;;
46757;SDS011;32509;47.750;-3.396;2024-02-23T07:55:36;35.13;;;32.53;;
46757;SDS011;32509;47.750;-3.396;2024-02-23T07:58:01;36.67;;;33.92;;
46757;SDS011;32509;47.750;-3.396;2024-02-23T08:00:27;37.92;;;34.88;;
46757;SDS011;32509;47.750;-3.396;2024-02-23T08:02:53;36.95;;;33.97;;
46757;SDS011;32509;47.750;-3.396;2024-02-23T08:05:22;36.20;;;32.75;;
46757;SDS011;32509;47.750;-3.396;2024-02-23T08:07:48;36.25;;;33.20;;
46757;SDS011;32509;47.750;-3.396;2024-02-23T08:10:14;38.17;;;34.90;;
46757;SDS011;32509;47.750;-3.396;2024-02-23T08:12:41;36.25;;;33.53;;
46757;SDS011;32509;47.750;-3.396;2024-02-23T08:15:06;34.20;;;31.80;;
46757;SDS011;32509;47.750;-3.396;2024-02-23T08:17:32;33.40;;;30.45;;
46757;SDS011;32509;47.750;-3.396;2024-02-23T08:19:58;33.47;;;31.27;;
46757;SDS011;32509;47.750;-3.396;2024-02-23T08:22:24;32.90;;;29.85;;
46757;SDS011;32509;47.750;-3.396;2024-02-23T08:24:49;32.42;;;30.08;;
46757;SDS011;32509;47.750;-3.396;2024-02-23T08:27:15;34.70;;;31.98;;
46757;SDS011;32509;47.750;-3.396;2024-02-23T08:29:41;32.50;;;30.20;;
46757;SDS011;32509;47.750;-3.396;2024-02-23T08:32:07;33.03;;;30.42;;
46757;SDS011;32509;47.750;-3.396;2024-02-23T08:34:33;33.40;;;31.00;;
46757;SDS011;32509;47.750;-3.396;2024-02-23T08:36:59;36.20;;;33.13;;
46757;SDS011;32509;47.750;-3.396;2024-02-23T08:39:26;34.50;;;32.13;;
46757;SDS011;32509;47.750;-3.396;2024-02-23T08:41:52;34.55;;;31.13;;
46757;SDS011;32509;47.750;-3.396;2024-02-23T08:44:18;32.97;;;30.38;;
46757;SDS011;32509;47.750;-3.396;2024-02-23T08:46:44;31.85;;;29.58;;
46757;SDS011;32509;47.750;-3.396;2024-02-23T08:49:09;33.08;;;30.27;;
46757;SDS011;32509;47.750;-3.396;2024-02-23T08:51:35;34.83;;;32.35;;
46757;SDS011;32509;47.750;-3.396;2024-02-23T08:54:02;34.70;;;32.10;;
46757;SDS011;32509;47.750;-3.396;2024-02-23T08:56:29;36.65;;;33.90;;
46757;SDS011;32509;47.750;-3.396;2024-02-23T08:58:55;40.15;;;36.65;;
46757;SDS011;32509;47.750;-3.396;2024-02-23T09:01:21;38.08;;;35.20;;
46757;SDS011;32509;47.750;-3.396;2024-02-23T09:03:47;38.25;;;35.33;;
46757;SDS011;32509;47.750;-3.396;2024-02-23T09:06:13;38.30;;;35.35;;
46757;SDS011;32509;47.750;-3.396;2024-02-23T09:08:39;34.80;;;32.35;;
46757;SDS011;32509;47.750;-3.396;2024-02-23T09:11:06;33.53;;;31.33;;
46757;SDS011;32509;47.750;-3.396;2024-02-23T09:13:31;33.95;;;31.65;;
46757;SDS011;32509;47.750;-3.396;2024-02-23T09:15:57;36.03;;;33.10;;
46757;SDS011;32509;47.750;-3.396;2024-02-23T09:18:23;34.33;;;31.58;;
46757;SDS011;32509;47.750;-3.396;2024-02-23T09:20:49;34.17;;;31.48;;
46757;SDS011;32509;47.750;-3.396;2024-02-23T09:23:15;34.47;;;31.98;;
46757;SDS011;32509;47.750;-3.396;2024-02-23T09:25:41;35.58;;;32.88;;
46757;SDS011;32509;47.750;-3.396;2024-02-23T09:28:07;33.58;;;30.38;;
46757;SDS011;32509;47.750;-3.396;2024-02-23T09:30:32;35.35;;;32.80;;
46757;SDS011;32509;47.750;-3.396;2024-02-23T09:32:58;36.33;;;33.72;;
46757;SDS011;32509;47.750;-3.396;2024-02-23T09:35:24;36.45;;;33.35;;
46757;SDS011;32509;47.750;-3.396;2024-02-23T09:37:50;37.55;;;34.22;;
46757;SDS011;32509;47.750;-3.396;2024-02-23T09:40:17;35.97;;;32.63;;
46757;SDS011;32509;47.750;-3.396;2024-02-23T09:42:43;35.33;;;31.98;;
46757;SDS011;32509;47.750;-3.396;2024-02-23T09:45:12;39.50;;;35.88;;
46757;SDS011;32509;47.750;-3.396;2024-02-23T09:47:39;38.33;;;35.30;;
46757;SDS011;32509;47.750;-3.396;2024-02-23T09:50:06;36.35;;;33.15;;
46757;SDS011;32509;47.750;-3.396;2024-02-23T09:52:34;36.00;;;33.22;;
46757;SDS011;32509;47.750;-3.396;2024-02-23T09:55:00;37.25;;;34.20;;
46757;SDS011;32509;47.750;-3.396;2024-02-23T09:57:28;35.15;;;32.75;;
46757;SDS011;32509;47.750;-3.396;2024-02-23T09:59:54;36.25;;;33.25;;
46757;SDS011;32509;47.750;-3.396;2024-02-23T10:02:20;38.72;;;35.92;;
46757;SDS011;32509;47.750;-3.396;2024-02-23T10:04:46;36.08;;;33.58;;
46757;SDS011;32509;47.750;-3.396;2024-02-23T10:07:15;35.45;;;32.85;;
46757;SDS011;32509;47.750;-3.396;2024-02-23T10:09:41;35.78;;;33.22;;
46757;SDS011;32509;47.750;-3.396;2024-02-23T10:12:07;34.55;;;32.10;;
46757;SDS011;32509;47.750;-3.396;2024-02-23T10:14:33;36.33;;;33.80;;
46757;SDS011;32509;47.750;-3.396;2024-02-23T10:16:59;40.90;;;38.13;;
46757;SDS011;32509;47.750;-3.396;2024-02-23T10:19:26;38.95;;;35.80;;
46757;SDS011;32509;47.750;-3.396;2024-02-23T10:21:54;36.80;;;34.17;;
46757;SDS011;32509;47.750;-3.396;2024-02-23T10:24:21;38.80;;;35.80;;
46757;SDS011;32509;47.750;-3.396;2024-02-23T10:26:48;36.25;;;33.65;;
46757;SDS011;32509;47.750;-3.396;2024-02-23T10:29:13;38.90;;;36.13;;
46757;SDS011;32509;47.750;-3.396;2024-02-23T10:31:39;38.28;;;35.28;;
46757;SDS011;32509;47.750;-3.396;2024-02-23T10:34:07;38.67;;;35.90;;
46757;SDS011;32509;47.750;-3.396;2024-02-23T10:36:37;38.67;;;36.00;;
46757;SDS011;32509;47.750;-3.396;2024-02-23T10:39:10;38.88;;;35.55;;
46757;SDS011;32509;47.750;-3.396;2024-02-23T10:41:40;37.38;;;34.47;;
46757;SDS011;32509;47.750;-3.396;2024-02-23T10:44:21;38.40;;;35.70;;
46757;SDS011;32509;47.750;-3.396;2024-02-23T10:46:46;38.80;;;34.90;;
46757;SDS011;32509;47.750;-3.396;2024-02-23T10:49:16;42.78;;;38.38;;
46757;SDS011;32509;47.750;-3.396;2024-02-23T10:51:45;42.30;;;39.40;;
46757;SDS011;32509;47.750;-3.396;2024-02-23T10:54:13;39.67;;;36.58;;
46757;SDS011;32509;47.750;-3.396;2024-02-23T10:56:42;39.58;;;36.33;;
46757;SDS011;32509;47.750;-3.396;2024-02-23T10:59:08;42.80;;;39.60;;
46757;SDS011;32509;47.750;-3.396;2024-02-23T11:01:34;39.42;;;36.25;;
46757;SDS011;32509;47.750;-3.396;2024-02-23T11:04:01;39.25;;;36.33;;
46757;SDS011;32509;47.750;-3.396;2024-02-23T11:06:28;36.58;;;34.13;;
46757;SDS011;32509;47.750;-3.396;2024-02-23T11:08:54;39.58;;;36.25;;
46757;SDS011;32509;47.750;-3.396;2024-02-23T11:11:31;39.85;;;36.92;;
46757;SDS011;32509;47.750;-3.396;2024-02-23T11:13:58;41.42;;;38.22;;
46757;SDS011;32509;47.750;-3.396;2024-02-23T11:16:28;38.95;;;36.08;;
46757;SDS011;32509;47.750;-3.396;2024-02-23T11:19:08;41.53;;;38.30;;
46757;SDS011;32509;47.750;-3.396;2024-02-23T11:21:37;42.30;;;38.83;;
46757;SDS011;32509;47.750;-3.396;2024-02-23T11:24:04;38.33;;;35.50;;
46757;SDS011;32509;47.750;-3.396;2024-02-23T11:26:30;41.63;;;38.28;;
46757;SDS011;32509;47.750;-3.396;2024-02-23T11:29:08;42.45;;;39.15;;
46757;SDS011;32509;47.750;-3.396;2024-02-23T11:31:36;42.85;;;39.25;;
46757;SDS011;32509;47.750;-3.396;2024-02-23T11:34:08;48.17;;;44.45;;
46757;SDS011;32509;47.750;-3.396;2024-02-23T11:36:34;42.83;;;39.60;;
46757;SDS011;32509;47.750;-3.396;2024-02-23T11:39:01;42.60;;;39.13;;
46757;SDS011;32509;47.750;-3.396;2024-02-23T11:41:28;42.72;;;39.42;;
46757;SDS011;32509;47.750;-3.396;2024-02-23T11:43:54;41.88;;;38.50;;
46757;SDS011;32509;47.750;-3.396;2024-02-23T11:46:21;41.63;;;38.17;;
46757;SDS011;32509;47.750;-3.396;2024-02-23T11:48:47;46.45;;;42.80;;
46757;SDS011;32509;47.750;-3.396;2024-02-23T11:51:19;52.65;;;48.83;;
46757;SDS011;32509;47.750;-3.396;2024-02-23T11:53:46;46.25;;;42.97;;
46757;SDS011;32509;47.750;-3.396;2024-02-23T11:56:12;47.05;;;43.72;;
46757;SDS011;32509;47.750;-3.396;2024-02-23T11:58:39;47.47;;;44.17;;
46757;SDS011;32509;47.750;-3.396;2024-02-23T12:01:05;45.05;;;42.17;;
46757;SDS011;32509;47.750;-3.396;2024-02-23T12:03:32;48.33;;;45.33;;
46757;SDS011;32509;47.750;-3.396;2024-02-23T12:05:58;52.05;;;48.58;;
46757;SDS011;32509;47.750;-3.396;2024-02-23T12:08:25;46.63;;;43.55;;
46757;SDS011;32509;47.750;-3.396;2024-02-23T12:10:55;43.15;;;40.33;;
46757;SDS011;32509;47.750;-3.396;2024-02-23T12:13:21;51.38;;;48.05;;
46757;SDS011;32509;47.750;-3.396;2024-02-23T12:15:48;45.33;;;42.33;;
46757;SDS011;32509;47.750;-3.396;2024-02-23T12:18:18;44.72;;;41.90;;
46757;SDS011;32509;47.750;-3.396;2024-02-23T12:20:48;52.58;;;48.58;;
46757;SDS011;32509;47.750;-3.396;2024-02-23T12:23:14;47.53;;;44.25;;
46757;SDS011;32509;47.750;-3.396;2024-02-23T12:25:41;45.20;;;41.70;;
46757;SDS011;32509;47.750;-3.396;2024-02-23T12:28:18;45.80;;;42.80;;
46757;SDS011;32509;47.750;-3.396;2024-02-23T12:30:44;45.45;;;41.97;;
46757;SDS011;32509;47.750;-3.396;2024-02-23T12:33:12;43.50;;;40.25;;
46757;SDS011;32509;47.750;-3.396;2024-02-23T12:35:41;45.85;;;42.42;;
46757;SDS011;32509;47.750;-3.396;2024-02-23T12:38:06;43.50;;;40.13;;
46757;SDS011;32509;47.750;-3.396;2024-02-23T12:40:32;45.40;;;42.13;;
46757;SDS011;32509;47.750;-3.396;2024-02-23T12:42:58;47.17;;;43.03;;
46757;SDS011;32509;47.750;-3.396;2024-02-23T12:45:23;49.30;;;45.53;;
46757;SDS011;32509;47.750;-3.396;2024-02-23T12:47:50;47.92;;;44.28;;
46757;SDS011;32509;47.750;-3.396;2024-02-23T12:50:15;50.22;;;46.78;;
46757;SDS011;32509;47.750;-3.396;2024-02-23T12:52:41;44.60;;;40.80;;
46757;SDS011;32509;47.750;-3.396;2024-02-23T12:55:08;48.20;;;44.17;;
46757;SDS011;32509;47.750;-3.396;2024-02-23T12:57:34;47.85;;;44.10;;
46757;SDS011;32509;47.750;-3.396;2024-02-23T12:59:59;46.03;;;42.55;;
46757;SDS011;32509;47.750;-3.396;2024-02-23T13:02:25;46.53;;;43.33;;
46757;SDS011;32509;47.750;-3.396;2024-02-23T13:04:51;47.08;;;43.33;;
46757;SDS011;32509;47.750;-3.396;2024-02-23T13:07:17;40.92;;;38.28;;
46757;SDS011;32509;47.750;-3.396;2024-02-23T13:09:43;42.67;;;39.95;;
46757;SDS011;32509;47.750;-3.396;2024-02-23T13:12:09;46.53;;;43.42;;
46757;SDS011;32509;47.750;-3.396;2024-02-23T13:14:35;42.85;;;40.15;;
46757;SDS011;32509;47.750;-3.396;2024-02-23T13:17:01;41.50;;;38.60;;
46757;SDS011;32509;47.750;-3.396;2024-02-23T13:19:28;40.47;;;37.50;;
46757;SDS011;32509;47.750;-3.396;2024-02-23T13:21:54;42.78;;;39.60;;
46757;SDS011;32509;47.750;-3.396;2024-02-23T13:24:20;38.45;;;35.45;;
46757;SDS011;32509;47.750;-3.396;2024-02-23T13:26:46;38.22;;;35.38;;
46757;SDS011;32509;47.750;-3.396;2024-02-23T13:29:11;36.38;;;33.58;;
46757;SDS011;32509;47.750;-3.396;2024-02-23T13:31:37;38.95;;;36.50;;
46757;SDS011;32509;47.750;-3.396;2024-02-23T13:34:04;37.35;;;34.90;;
46757;SDS011;32509;47.750;-3.396;2024-02-23T13:36:30;38.85;;;36.22;;
46757;SDS011;32509;47.750;-3.396;2024-02-23T13:38:56;37.90;;;35.38;;
46757;SDS011;32509;47.750;-3.396;2024-02-23T13:41:22;37.05;;;34.58;;
46757;SDS011;32509;47.750;-3.396;2024-02-23T13:43:48;42.08;;;39.47;;
46757;SDS011;32509;47.750;-3.396;2024-02-23T13:46:13;40.65;;;38.05;;
46757;SDS011;32509;47.750;-3.396;2024-02-23T13:48:39;42.25;;;39.55;;
46757;SDS011;32509;47.750;-3.396;2024-02-23T13:51:05;39.85;;;37.33;;
46757;SDS011;32509;47.750;-3.396;2024-02-23T13:53:31;40.88;;;38.47;;
46757;SDS011;32509;47.750;-3.396;2024-02-23T13:55:58;39.67;;;36.95;;
46757;SDS011;32509;47.750;-3.396;2024-02-23T13:58:26;37.67;;;35.25;;
46757;SDS011;32509;47.750;-3.396;2024-02-23T14:00:53;40.28;;;37.75;;
46757;SDS011;32509;47.750;-3.396;2024-02-23T14:03:19;38.67;;;36.40;;
46757;SDS011;32509;47.750;-3.396;2024-02-23T14:05:46;39.22;;;36.75;;